Time;durP1;ratioP1;P1;durP2;ratioP2;P2;SDS_P1;SDS_P2;PMS_P1;PMS_P2;Temp;Humidity;BMP_temperature;BMP_pressure;BME280_temperature;BME280_humidity;BME280_pressure;Samples;Min_cycle;Max_cycle;Signal;HPM_P1;HPM_P2
2023/05/08 00:01:52;;;;;;;17.77;13.90;;;;;;;;;;5115518;28;20606;-77
2023/05/08 00:04:20;;;;;;;8.47;5.60;;;;;;;;;;5114754;28;20566;-76
2023/05/08 00:06:47;;;;;;;12.17;5.13;;;;;;;;;;5114971;27;20193;-77
2023/05/08 00:09:14;;;;;;;9.90;5.13;;;;;;;;;;5114091;28;20330;-76
2023/05/08 00:11:41;;;;;;;9.17;5.00;;;;;;;;;;5114409;28;20666;-76
2023/05/08 00:14:08;;;;;;;11.27;5.10;;;;;;;;;;5114767;28;20317;-77
2023/05/08 00:16:36;;;;;;;13.17;5.40;;;;;;;;;;5114933;28;20228;-76
2023/05/08 00:19:04;;;;;;;9.60;4.80;;;;;;;;;;5114972;28;20194;-77
2023/05/08 00:21:31;;;;;;;10.53;5.30;;;;;;;;;;5114581;27;20200;-77
2023/05/08 00:23:58;;;;;;;12.97;5.33;;;;;;;;;;5113987;28;20336;-76
2023/05/08 00:26:26;;;;;;;11.13;4.87;;;;;;;;;;5114611;27;20284;-78
2023/05/08 00:28:53;;;;;;;10.37;4.90;;;;;;;;;;5114999;27;20285;-76
2023/05/08 00:31:20;;;;;;;8.67;5.07;;;;;;;;;;5114341;28;20280;-77
2023/05/08 00:33:47;;;;;;;11.87;5.57;;;;;;;;;;5114714;28;20194;-77
2023/05/08 00:36:16;;;;;;;13.60;5.27;;;;;;;;;;5114932;28;20288;-78
2023/05/08 00:38:43;;;;;;;14.27;5.30;;;;;;;;;;5113619;28;20293;-78
2023/05/08 00:41:10;;;;;;;9.97;4.83;;;;;;;;;;5114816;28;20273;-77
2023/05/08 00:43:38;;;;;;;8.97;5.00;;;;;;;;;;5113944;28;20243;-78
2023/05/08 00:46:08;;;;;;;8.47;4.90;;;;;;;;;;5113193;28;20198;-77
2023/05/08 00:48:35;;;;;;;9.93;5.33;;;;;;;;;;5114229;28;20202;-77
2023/05/08 00:51:05;;;;;;;11.60;5.50;;;;;;;;;;5113868;28;20666;-77
2023/05/08 00:53:36;;;;;;;8.10;5.00;;;;;;;;;;5113918;28;20292;-77
2023/05/08 00:56:03;;;;;;;12.93;5.13;;;;;;;;;;5113890;28;20281;-77
2023/05/08 00:58:32;;;;;;;9.17;5.63;;;;;;;;;;5114049;28;20228;-76
2023/05/08 01:01:00;;;;;;;13.43;5.77;;;;;;;;;;5113803;28;20288;-76
2023/05/08 01:03:27;;;;;;;8.80;5.00;;;;;;;;;;5113703;28;20644;-76
2023/05/08 01:05:55;;;;;;;8.83;6.00;;;;;;;;;;5113317;28;20233;-77
2023/05/08 01:08:22;;;;;;;8.03;5.07;;;;;;;;;;5113843;28;20292;-77
2023/05/08 01:10:55;;;;;;;11.90;5.57;;;;;;;;;;5113996;28;20280;-78
2023/05/08 01:13:27;;;;;;;11.03;5.23;;;;;;;;;;5113359;28;20284;-77
2023/05/08 01:15:58;;;;;;;7.93;4.50;;;;;;;;;;5110156;28;20336;-76
2023/05/08 01:18:29;;;;;;;13.33;5.40;;;;;;;;;;5103315;28;20206;-77
2023/05/08 01:20:59;;;;;;;14.17;5.20;;;;;;;;;;5092725;28;20198;-78
2023/05/08 01:23:43;;;;;;;8.83;4.57;;;;;;;;;;5093580;28;20222;-77
2023/05/08 01:26:29;;;;;;;7.87;4.83;;;;;;;;;;5093129;28;20259;-76
2023/05/08 01:29:10;;;;;;;10.27;5.50;;;;;;;;;;5093217;28;20281;-77
2023/05/08 01:31:48;;;;;;;7.93;4.87;;;;;;;;;;5093303;28;20648;-77
2023/05/08 01:34:20;;;;;;;7.57;4.90;;;;;;;;;;5093265;28;20226;-77
2023/05/08 01:36:51;;;;;;;7.63;5.07;;;;;;;;;;5092699;28;20623;-77
2023/05/08 01:39:19;;;;;;;9.57;5.07;;;;;;;;;;5092900;28;20281;-77
2023/05/08 01:41:49;;;;;;;10.93;5.37;;;;;;;;;;5092883;28;20293;-77
2023/05/08 01:44:19;;;;;;;13.03;5.53;;;;;;;;;;5092391;28;20244;-77
2023/05/08 01:46:48;;;;;;;10.87;5.10;;;;;;;;;;5092713;28;20293;-77
2023/05/08 01:49:22;;;;;;;13.70;5.50;;;;;;;;;;5092219;28;20294;-76
2023/05/08 01:51:54;;;;;;;8.33;4.87;;;;;;;;;;5092697;28;20233;-77
2023/05/08 01:54:24;;;;;;;7.97;5.07;;;;;;;;;;5092577;28;20222;-76
2023/05/08 01:56:53;;;;;;;12.03;5.43;;;;;;;;;;5091988;28;20744;-77
2023/05/08 01:59:22;;;;;;;10.67;5.33;;;;;;;;;;5092290;28;20218;-77
2023/05/08 02:01:51;;;;;;;7.53;4.80;;;;;;;;;;5105422;28;20281;-76
2023/05/08 02:04:20;;;;;;;11.43;5.60;;;;;;;;;;5112104;28;20838;-78
2023/05/08 02:06:47;;;;;;;8.63;5.00;;;;;;;;;;5112879;28;20284;-77
2023/05/08 02:09:15;;;;;;;12.33;5.17;;;;;;;;;;5112829;28;20277;-76
2023/05/08 02:11:44;;;;;;;9.90;4.93;;;;;;;;;;5112498;28;20292;-77
2023/05/08 02:14:12;;;;;;;9.73;5.10;;;;;;;;;;5112538;28;20229;-76
2023/05/08 02:16:40;;;;;;;9.53;5.20;;;;;;;;;;5112712;28;20308;-78
2023/05/08 02:19:08;;;;;;;13.17;5.57;;;;;;;;;;5111942;28;20284;-76
2023/05/08 02:21:37;;;;;;;9.30;5.27;;;;;;;;;;5112666;28;20289;-77
2023/05/08 02:24:05;;;;;;;10.40;5.93;;;;;;;;;;5112100;28;20312;-76
2023/05/08 02:26:33;;;;;;;9.67;5.27;;;;;;;;;;5112315;28;20243;-78
2023/05/08 02:29:01;;;;;;;14.23;5.63;;;;;;;;;;5112490;28;20220;-78
2023/05/08 02:31:28;;;;;;;6.97;5.17;;;;;;;;;;5111610;28;20671;-76
2023/05/08 02:33:56;;;;;;;10.07;5.10;;;;;;;;;;5112176;28;20756;-78
2023/05/08 02:36:23;;;;;;;10.97;5.10;;;;;;;;;;5111857;28;20217;-76
2023/05/08 02:38:54;;;;;;;11.83;5.10;;;;;;;;;;5111846;28;20320;-78
2023/05/08 02:41:22;;;;;;;11.13;5.27;;;;;;;;;;5111950;28;20293;-77
2023/05/08 02:43:50;;;;;;;9.03;4.60;;;;;;;;;;5112436;28;20245;-76
2023/05/08 02:46:19;;;;;;;9.60;5.30;;;;;;;;;;5112234;28;20197;-77
2023/05/08 02:48:51;;;;;;;12.87;5.20;;;;;;;;;;5111608;28;20197;-76
2023/05/08 02:51:21;;;;;;;8.07;5.30;;;;;;;;;;5111924;28;20194;-77
2023/05/08 02:53:55;;;;;;;9.90;5.53;;;;;;;;;;5112207;28;20225;-76
2023/05/08 02:56:31;;;;;;;9.33;5.13;;;;;;;;;;5111524;28;20189;-76
2023/05/08 02:59:01;;;;;;;10.53;5.50;;;;;;;;;;5111607;28;20193;-77
2023/05/08 03:01:32;;;;;;;9.10;5.10;;;;;;;;;;5111984;28;20301;-77
2023/05/08 03:04:02;;;;;;;8.40;4.80;;;;;;;;;;5111544;28;20298;-77
2023/05/08 03:06:32;;;;;;;9.80;4.87;;;;;;;;;;5111647;28;20247;-77
2023/05/08 03:09:02;;;;;;;8.03;4.87;;;;;;;;;;5111375;28;20197;-76
2023/05/08 03:11:34;;;;;;;8.57;4.90;;;;;;;;;;5111387;28;20767;-76
2023/05/08 03:14:02;;;;;;;11.30;5.57;;;;;;;;;;5111310;28;20265;-77
2023/05/08 03:16:32;;;;;;;11.17;5.60;;;;;;;;;;5111515;28;20284;-77
2023/05/08 03:19:01;;;;;;;8.77;5.10;;;;;;;;;;5111792;28;20221;-77
2023/05/08 03:21:29;;;;;;;8.67;4.77;;;;;;;;;;5111437;28;20233;-77
2023/05/08 03:23:57;;;;;;;9.73;5.17;;;;;;;;;;5111749;28;20261;-77
2023/05/08 03:26:25;;;;;;;9.33;5.20;;;;;;;;;;5111052;28;20197;-77
2023/05/08 03:28:54;;;;;;;7.83;4.57;;;;;;;;;;5111249;28;20189;-76
2023/05/08 03:31:22;;;;;;;7.63;4.80;;;;;;;;;;5110750;28;20318;-77
2023/05/08 03:33:52;;;;;;;8.87;4.97;;;;;;;;;;5111659;28;20448;-77
2023/05/08 03:36:21;;;;;;;12.03;5.07;;;;;;;;;;5111571;28;20221;-77
2023/05/08 03:38:48;;;;;;;9.13;4.73;;;;;;;;;;5111223;28;20711;-77
2023/05/08 03:41:16;;;;;;;9.97;5.27;;;;;;;;;;5111304;28;20232;-77
2023/05/08 03:43:43;;;;;;;11.57;4.73;;;;;;;;;;5111629;28;20280;-78
2023/05/08 03:46:12;;;;;;;10.47;5.23;;;;;;;;;;5111010;28;20289;-78
2023/05/08 03:48:40;;;;;;;11.57;5.60;;;;;;;;;;5111205;28;20244;-78
2023/05/08 03:51:07;;;;;;;12.60;5.80;;;;;;;;;;5111135;28;20200;-77
2023/05/08 03:53:35;;;;;;;6.90;5.23;;;;;;;;;;5111529;28;20200;-76
2023/05/08 03:56:02;;;;;;;11.30;5.43;;;;;;;;;;5111235;28;20288;-76
2023/05/08 03:58:33;;;;;;;12.17;5.17;;;;;;;;;;5111258;28;20197;-77
2023/05/08 04:01:04;;;;;;;11.37;5.13;;;;;;;;;;5110836;28;20289;-77
2023/05/08 04:03:44;;;;;;;9.57;5.33;;;;;;;;;;5111081;28;20309;-77
2023/05/08 04:06:12;;;;;;;11.53;5.47;;;;;;;;;;5110805;28;20699;-77
2023/05/08 04:08:42;;;;;;;8.97;5.30;;;;;;;;;;5111019;28;20236;-78
2023/05/08 04:11:13;;;;;;;9.07;5.30;;;;;;;;;;5111701;28;20194;-78
2023/05/08 04:13:43;;;;;;;11.13;5.37;;;;;;;;;;5111299;28;20221;-77
2023/05/08 04:16:14;;;;;;;13.00;5.57;;;;;;;;;;5110205;28;20769;-77
2023/05/08 04:18:46;;;;;;;10.00;5.60;;;;;;;;;;5111538;28;20193;-76
2023/05/08 04:21:16;;;;;;;9.77;4.97;;;;;;;;;;5112297;28;20197;-77
2023/05/08 04:23:44;;;;;;;11.27;5.20;;;;;;;;;;5114730;28;20304;-77
2023/05/08 04:26:12;;;;;;;9.00;5.17;;;;;;;;;;5114581;28;20285;-77
2023/05/08 04:28:40;;;;;;;8.27;5.63;;;;;;;;;;5114321;27;20293;-77
2023/05/08 04:31:07;;;;;;;7.70;4.87;;;;;;;;;;5114691;28;20565;-77
2023/05/08 04:33:35;;;;;;;10.33;5.57;;;;;;;;;;5114421;28;20193;-77
2023/05/08 04:36:04;;;;;;;11.07;5.93;;;;;;;;;;5114268;28;20194;-77
2023/05/08 04:38:31;;;;;;;10.03;5.50;;;;;;;;;;5114526;28;20204;-77
2023/05/08 04:40:58;;;;;;;10.53;4.93;;;;;;;;;;5114189;28;20297;-77
2023/05/08 04:43:25;;;;;;;11.17;5.33;;;;;;;;;;5113360;28;20265;-77
2023/05/08 04:45:52;;;;;;;11.53;5.63;;;;;;;;;;5114493;28;20243;-77
2023/05/08 04:48:19;;;;;;;8.23;4.77;;;;;;;;;;5114854;28;20198;-77
2023/05/08 04:50:47;;;;;;;7.73;4.57;;;;;;;;;;5114212;28;20244;-77
2023/05/08 04:53:15;;;;;;;6.37;4.90;;;;;;;;;;5113904;28;20284;-77
2023/05/08 04:55:42;;;;;;;7.03;4.37;;;;;;;;;;5114381;28;20197;-77
2023/05/08 04:58:11;;;;;;;7.80;5.00;;;;;;;;;;5113732;28;20305;-77
2023/05/08 05:00:38;;;;;;;7.77;4.90;;;;;;;;;;5113810;28;20258;-76
2023/05/08 05:03:05;;;;;;;8.57;4.83;;;;;;;;;;5113760;28;20288;-77
2023/05/08 05:05:32;;;;;;;7.43;4.20;;;;;;;;;;5113954;28;20321;-77
2023/05/08 05:07:59;;;;;;;7.33;4.43;;;;;;;;;;5113486;28;20696;-77
2023/05/08 05:10:28;;;;;;;7.83;4.50;;;;;;;;;;5113274;28;20612;-76
2023/05/08 05:12:55;;;;;;;7.67;4.20;;;;;;;;;;5113240;28;20292;-77
2023/05/08 05:15:22;;;;;;;6.63;4.40;;;;;;;;;;5113640;28;20706;-76
2023/05/08 05:17:49;;;;;;;6.03;3.73;;;;;;;;;;5113911;28;20225;-77
2023/05/08 05:20:17;;;;;;;7.33;4.20;;;;;;;;;;5113518;28;20228;-77
2023/05/08 05:22:44;;;;;;;6.33;4.30;;;;;;;;;;5113743;28;20262;-78
2023/05/08 05:25:11;;;;;;;8.37;4.23;;;;;;;;;;5113774;28;20330;-77
2023/05/08 05:27:39;;;;;;;5.87;4.57;;;;;;;;;;5113000;28;20197;-77
2023/05/08 05:30:07;;;;;;;6.33;4.57;;;;;;;;;;5113136;28;20228;-77
2023/05/08 05:32:35;;;;;;;6.53;4.20;;;;;;;;;;5113014;28;20292;-77
2023/05/08 05:35:02;;;;;;;6.37;4.70;;;;;;;;;;5113287;28;20696;-77
2023/05/08 05:37:29;;;;;;;5.63;4.13;;;;;;;;;;5113628;28;20263;-77
2023/05/08 05:39:56;;;;;;;6.70;4.43;;;;;;;;;;5113493;28;20285;-77
2023/05/08 05:42:23;;;;;;;5.90;4.40;;;;;;;;;;5112950;28;20190;-78
2023/05/08 05:44:52;;;;;;;9.80;5.13;;;;;;;;;;5113296;28;20269;-76
2023/05/08 05:47:19;;;;;;;8.67;4.73;;;;;;;;;;5112385;28;20280;-77
2023/05/08 05:49:46;;;;;;;9.20;4.50;;;;;;;;;;5113608;28;20197;-78
2023/05/08 05:52:13;;;;;;;8.57;4.30;;;;;;;;;;5111840;28;20198;-77
2023/05/08 05:54:41;;;;;;;7.70;4.10;;;;;;;;;;5113048;28;20677;-77
2023/05/08 05:57:08;;;;;;;8.47;4.73;;;;;;;;;;5112429;28;20198;-77
2023/05/08 05:59:35;;;;;;;5.47;4.33;;;;;;;;;;5112982;28;20727;-78
2023/05/08 06:02:04;;;;;;;8.23;4.60;;;;;;;;;;5111558;28;20288;-76
2023/05/08 06:04:31;;;;;;;7.63;4.40;;;;;;;;;;5112602;28;20221;-77
2023/05/08 06:06:58;;;;;;;8.47;4.33;;;;;;;;;;5112890;28;20198;-78
2023/05/08 06:09:25;;;;;;;8.90;4.37;;;;;;;;;;5112905;28;20316;-78
2023/05/08 06:11:53;;;;;;;6.70;4.13;;;;;;;;;;5112402;28;20222;-78
2023/05/08 06:14:20;;;;;;;8.17;4.03;;;;;;;;;;5112305;28;20249;-77
2023/05/08 06:16:47;;;;;;;6.53;4.10;;;;;;;;;;5112898;28;20201;-77
2023/05/08 06:19:16;;;;;;;7.10;4.33;;;;;;;;;;5112216;28;20194;-77
2023/05/08 06:21:43;;;;;;;7.33;4.20;;;;;;;;;;5112365;28;20654;-77
2023/05/08 06:24:10;;;;;;;6.23;4.07;;;;;;;;;;5112106;28;20256;-77
2023/05/08 06:26:37;;;;;;;5.30;4.13;;;;;;;;;;5112147;28;20213;-77
2023/05/08 06:29:05;;;;;;;11.70;4.83;;;;;;;;;;5112859;28;20238;-77
2023/05/08 06:31:32;;;;;;;5.87;4.40;;;;;;;;;;5111947;28;20723;-78
2023/05/08 06:33:59;;;;;;;6.20;4.17;;;;;;;;;;5112378;28;20190;-77
2023/05/08 06:36:27;;;;;;;7.10;4.43;;;;;;;;;;5112443;28;20200;-78
2023/05/08 06:38:55;;;;;;;7.70;4.63;;;;;;;;;;5112228;28;20221;-77
2023/05/08 06:41:22;;;;;;;8.20;4.47;;;;;;;;;;5111697;28;20224;-78
2023/05/08 06:43:49;;;;;;;9.17;4.73;;;;;;;;;;5111152;28;20772;-78
2023/05/08 06:46:16;;;;;;;7.10;4.20;;;;;;;;;;5111978;28;20221;-77
2023/05/08 06:48:44;;;;;;;7.97;4.40;;;;;;;;;;5111885;28;21045;-77
2023/05/08 06:51:11;;;;;;;7.37;4.57;;;;;;;;;;5111831;28;20239;-77
2023/05/08 06:53:39;;;;;;;7.10;4.40;;;;;;;;;;5111565;28;20225;-79
2023/05/08 06:56:07;;;;;;;7.33;4.23;;;;;;;;;;5112441;28;20277;-77
2023/05/08 06:58:34;;;;;;;7.57;4.73;;;;;;;;;;5112021;28;20296;-77
2023/05/08 07:01:01;;;;;;;9.03;4.50;;;;;;;;;;5111933;28;20400;-78
2023/05/08 07:03:29;;;;;;;7.63;4.53;;;;;;;;;;5112036;28;20233;-77
2023/05/08 07:05:56;;;;;;;8.40;5.10;;;;;;;;;;5111599;28;20336;-76
2023/05/08 07:08:23;;;;;;;5.50;4.40;;;;;;;;;;5110987;28;20285;-79
2023/05/08 07:10:52;;;;;;;7.93;4.50;;;;;;;;;;5105048;28;20642;-79
2023/05/08 07:13:20;;;;;;;7.70;4.43;;;;;;;;;;5100575;28;20198;-80
2023/05/08 07:15:48;;;;;;;7.27;4.70;;;;;;;;;;5108774;28;20290;-80
2023/05/08 07:18:15;;;;;;;6.33;4.67;;;;;;;;;;5111120;28;20194;-81
2023/05/08 07:20:42;;;;;;;10.63;4.80;;;;;;;;;;5104658;28;20202;-82
2023/05/08 07:23:10;;;;;;;8.17;4.83;;;;;;;;;;5111020;28;20189;-81
2023/05/08 07:25:37;;;;;;;6.20;5.00;;;;;;;;;;5104869;28;20744;-81
2023/05/08 07:28:06;;;;;;;7.83;4.97;;;;;;;;;;5095492;28;20753;-82
2023/05/08 07:30:34;;;;;;;8.80;4.97;;;;;;;;;;5109143;28;20296;-83
2023/05/08 07:33:02;;;;;;;12.43;5.17;;;;;;;;;;5111766;28;20283;-80
2023/05/08 07:35:30;;;;;;;8.07;4.97;;;;;;;;;;5111515;28;20272;-82
2023/05/08 07:37:57;;;;;;;7.83;5.00;;;;;;;;;;5111175;28;20198;-78
2023/05/08 07:49:46;;;;;;;7.73;5.33;;;;;;;;;;4910225;29;20283;-78
2023/05/08 07:52:14;;;;;;;9.10;5.27;;;;;;;;;;4919941;29;20203;-78
2023/05/08 07:54:42;;;;;;;9.40;5.20;;;;;;;;;;4949390;28;20253;-78
2023/05/08 07:57:10;;;;;;;13.13;6.23;;;;;;;;;;4935300;29;20287;-78
2023/05/08 07:59:37;;;;;;;12.23;5.50;;;;;;;;;;4934865;29;20255;-80
2023/05/08 08:02:04;;;;;;;8.17;5.67;;;;;;;;;;4934710;29;20302;-80
2023/05/08 08:04:31;;;;;;;8.80;5.77;;;;;;;;;;4935044;29;20295;-81
2023/05/08 08:06:58;;;;;;;9.67;5.90;;;;;;;;;;4934378;29;20296;-81
2023/05/08 08:09:27;;;;;;;9.23;5.90;;;;;;;;;;4934361;29;20196;-80
2023/05/08 08:11:54;;;;;;;11.80;6.50;;;;;;;;;;4934561;29;20240;-80
2023/05/08 08:14:21;;;;;;;9.83;6.43;;;;;;;;;;4934437;29;20238;-81
2023/05/08 08:16:48;;;;;;;8.50;6.00;;;;;;;;;;4934555;29;20302;-81
2023/05/08 08:19:16;;;;;;;11.70;6.57;;;;;;;;;;4936680;28;20299;-81
2023/05/08 08:21:43;;;;;;;12.03;7.30;;;;;;;;;;5011592;28;20705;-81
2023/05/08 08:24:10;;;;;;;13.30;7.20;;;;;;;;;;5056488;28;20203;-81
2023/05/08 08:26:39;;;;;;;12.97;7.17;;;;;;;;;;5095130;28;20224;-81
2023/05/08 08:29:06;;;;;;;11.77;6.80;;;;;;;;;;5114342;28;20269;-81
2023/05/08 08:31:33;;;;;;;12.53;7.67;;;;;;;;;;5113761;28;20240;-81
2023/05/08 08:34:01;;;;;;;11.83;7.33;;;;;;;;;;5113762;28;20233;-81
2023/05/08 08:36:28;;;;;;;10.90;7.47;;;;;;;;;;5113488;28;20296;-82
2023/05/08 08:38:55;;;;;;;9.57;7.03;;;;;;;;;;5113728;28;20645;-82
2023/05/08 08:41:22;;;;;;;11.17;6.97;;;;;;;;;;5113738;28;20270;-80
2023/05/08 08:43:51;;;;;;;10.37;7.20;;;;;;;;;;5114195;28;20631;-81
2023/05/08 08:46:20;;;;;;;11.40;6.70;;;;;;;;;;5113727;27;20665;-80
2023/05/08 08:48:48;;;;;;;9.83;7.30;;;;;;;;;;5114108;28;20201;-82
2023/05/08 08:51:19;;;;;;;10.73;6.87;;;;;;;;;;5113517;28;20221;-82
2023/05/08 08:53:50;;;;;;;10.07;6.53;;;;;;;;;;5096878;28;20292;-82
2023/05/08 08:56:18;;;;;;;10.13;7.07;;;;;;;;;;5108546;28;20285;-80
2023/05/08 08:58:49;;;;;;;13.87;6.90;;;;;;;;;;5113255;28;20208;-81
2023/05/08 09:01:19;;;;;;;10.30;6.95;;;;;;;;;;5112380;28;20201;-81
2023/05/08 09:03:46;;;;;;;10.77;7.10;;;;;;;;;;5106615;28;20259;-82
2023/05/08 09:06:14;;;;;;;10.80;6.57;;;;;;;;;;5100019;28;20261;-83
2023/05/08 09:08:42;;;;;;;8.70;6.33;;;;;;;;;;5113509;28;20225;-83
2023/05/08 09:11:09;;;;;;;11.93;6.15;;;;;;;;;;5113432;28;20200;-82
2023/05/08 09:13:36;;;;;;;8.70;6.00;;;;;;;;;;5113596;28;20280;-83
2023/05/08 09:16:04;;;;;;;9.52;6.85;;;;;;;;;;5113206;28;20681;-82
2023/05/08 09:18:32;;;;;;;9.10;5.82;;;;;;;;;;5113619;28;20205;-83
2023/05/08 09:21:00;;;;;;;6.22;5.63;;;;;;;;;;5113481;28;20206;-82
2023/05/08 09:23:28;;;;;;;9.20;5.68;;;;;;;;;;5113404;28;20276;-82
2023/05/08 09:25:55;;;;;;;10.85;6.07;;;;;;;;;;5113423;28;20594;-82
2023/05/08 09:28:22;;;;;;;7.68;5.97;;;;;;;;;;5113677;28;20221;-82
2023/05/08 09:30:50;;;;;;;8.27;5.70;;;;;;;;;;5113224;28;20281;-84
2023/05/08 09:33:18;;;;;;;8.52;5.55;;;;;;;;;;5112728;28;20573;-83
2023/05/08 09:35:47;;;;;;;8.80;6.03;;;;;;;;;;5113507;28;20288;-83
2023/05/08 09:38:34;;;;;;;7.35;5.50;;;;;;;;;;5113071;28;20200;-83
2023/05/08 09:41:07;;;;;;;7.00;5.10;;;;;;;;;;5113164;28;20197;-82
2023/05/08 09:43:34;;;;;;;6.78;5.43;;;;;;;;;;5112669;28;20190;-83
2023/05/08 09:46:20;;;;;;;7.13;5.50;;;;;;;;;;5112658;28;20252;-82
2023/05/08 09:48:47;;;;;;;5.45;4.93;;;;;;;;;;5112684;28;20238;-83
2023/05/08 09:51:18;;;;;;;8.82;5.00;;;;;;;;;;5112822;28;20193;-83
2023/05/08 09:53:45;;;;;;;5.82;5.00;;;;;;;;;;5112974;28;20236;-83
2023/05/08 09:56:12;;;;;;;8.35;5.15;;;;;;;;;;5112509;28;20201;-83
2023/05/08 09:58:40;;;;;;;5.68;4.10;;;;;;;;;;5112639;28;20319;-83
2023/05/08 10:01:08;;;;;;;6.97;5.22;;;;;;;;;;5112912;28;20194;-83
2023/05/08 10:03:47;;;;;;;7.22;4.63;;;;;;;;;;5112640;28;20194;-82
2023/05/08 10:06:16;;;;;;;4.68;3.83;;;;;;;;;;5112168;28;20225;-84
2023/05/08 10:08:44;;;;;;;6.20;4.55;;;;;;;;;;5109107;28;20281;-83
2023/05/08 10:11:15;;;;;;;8.60;5.50;;;;;;;;;;5112866;28;20194;-82
2023/05/08 10:13:43;;;;;;;5.63;4.00;;;;;;;;;;5111991;28;20276;-84
2023/05/08 10:16:12;;;;;;;6.05;3.20;;;;;;;;;;5112020;28;20273;-84
2023/05/08 10:18:40;;;;;;;4.93;3.60;;;;;;;;;;5112029;28;20198;-84
2023/05/08 10:21:08;;;;;;;5.45;3.38;;;;;;;;;;5112710;28;20580;-84
2023/05/08 10:23:38;;;;;;;4.43;2.55;;;;;;;;;;5110973;28;20201;-83
2023/05/08 10:26:08;;;;;;;5.15;3.38;;;;;;;;;;5110950;28;20309;-84
2023/05/08 10:28:40;;;;;;;3.90;2.92;;;;;;;;;;5112099;28;20190;-83
2023/05/08 10:31:08;;;;;;;3.05;1.90;;;;;;;;;;5111703;28;20197;-84
2023/05/08 10:33:36;;;;;;;2.60;1.90;;;;;;;;;;5112088;28;20194;-84
2023/05/08 10:36:03;;;;;;;9.82;8.85;;;;;;;;;;5111921;28;20284;-83
2023/05/08 10:38:31;;;;;;;4.22;3.00;;;;;;;;;;5106827;27;20289;-84
2023/05/08 10:41:02;;;;;;;2.95;1.90;;;;;;;;;;5105547;28;20297;-82
2023/05/08 10:43:30;;;;;;;3.25;2.80;;;;;;;;;;5100296;28;20717;-82
2023/05/08 10:45:58;;;;;;;4.57;2.65;;;;;;;;;;5110008;28;20253;-80
2023/05/08 10:48:30;;;;;;;4.00;2.40;;;;;;;;;;5100400;28;20255;-81
2023/05/08 10:51:03;;;;;;;2.92;1.98;;;;;;;;;;5105266;28;20232;-79
2023/05/08 10:53:38;;;;;;;1.90;1.45;;;;;;;;;;5104742;28;20254;-79
2023/05/08 10:56:08;;;;;;;3.63;1.60;;;;;;;;;;5108034;27;20197;-79
2023/05/08 10:58:38;;;;;;;2.58;1.80;;;;;;;;;;5108326;28;20284;-80
2023/05/08 11:01:12;;;;;;;2.88;1.63;;;;;;;;;;5106442;28;20689;-78
2023/05/08 11:03:40;;;;;;;4.18;1.58;;;;;;;;;;5104443;28;20280;-79
2023/05/08 11:06:07;;;;;;;2.90;1.60;;;;;;;;;;5098098;28;20248;-80
2023/05/08 11:08:43;;;;;;;2.38;1.67;;;;;;;;;;5103989;28;20255;-80
2023/05/08 11:11:14;;;;;;;2.80;1.50;;;;;;;;;;5110678;28;20285;-79
2023/05/08 11:13:43;;;;;;;3.67;1.70;;;;;;;;;;5119535;28;20280;-79
2023/05/08 11:16:10;;;;;;;1.63;1.23;;;;;;;;;;5110369;28;20218;-78
2023/05/08 11:18:38;;;;;;;2.22;1.38;;;;;;;;;;5111023;28;20194;-78
2023/05/08 11:21:05;;;;;;;2.45;1.30;;;;;;;;;;5111412;28;20186;-80
2023/05/08 11:23:33;;;;;;;3.13;1.30;;;;;;;;;;5110533;28;20325;-79
2023/05/08 11:26:01;;;;;;;1.88;1.10;;;;;;;;;;5110762;28;20214;-79
2023/05/08 11:28:32;;;;;;;1.90;1.02;;;;;;;;;;5110896;28;20663;-79
2023/05/08 11:31:03;;;;;;;3.25;1.23;;;;;;;;;;5128754;27;20205;-79
2023/05/08 11:33:31;;;;;;;2.35;1.20;;;;;;;;;;5116827;27;20300;-84
2023/05/08 11:35:58;;;;;;;1.35;0.93;;;;;;;;;;5115432;28;20242;-79
2023/05/08 11:38:27;;;;;;;1.30;1.15;;;;;;;;;;5115158;28;20203;-81
2023/05/08 11:41:06;;;;;;;1.13;0.90;;;;;;;;;;5115201;28;20222;-79
2023/05/08 11:43:48;;;;;;;2.75;1.23;;;;;;;;;;5113725;28;20198;-79
2023/05/08 11:46:18;;;;;;;1.80;1.30;;;;;;;;;;5114283;28;20232;-80
2023/05/08 11:48:45;;;;;;;2.42;1.60;;;;;;;;;;5114124;28;20262;-80
2023/05/08 11:51:13;;;;;;;1.80;1.38;;;;;;;;;;5114607;28;20285;-80
2023/05/08 11:53:41;;;;;;;1.92;1.33;;;;;;;;;;5115298;28;20706;-81
2023/05/08 11:56:08;;;;;;;2.30;1.33;;;;;;;;;;5106699;28;20190;-82
2023/05/08 11:58:36;;;;;;;2.42;1.50;;;;;;;;;;5113938;28;20647;-80
2023/05/08 12:01:03;;;;;;;2.78;1.50;;;;;;;;;;5107188;28;20190;-81
2023/05/08 12:03:32;;;;;;;2.00;1.40;;;;;;;;;;5113097;27;20296;-81
2023/05/08 12:05:59;;;;;;;3.13;1.80;;;;;;;;;;5112458;27;20284;-81
2023/05/08 12:08:27;;;;;;;4.05;1.60;;;;;;;;;;5105572;28;20198;-80
2023/05/08 12:10:55;;;;;;;2.83;1.63;;;;;;;;;;5103210;28;20269;-80
2023/05/08 12:13:23;;;;;;;1.35;1.20;;;;;;;;;;5106745;28;20194;-81
2023/05/08 12:15:52;;;;;;;2.72;1.63;;;;;;;;;;5112090;27;20255;-81
2023/05/08 12:18:19;;;;;;;2.42;1.67;;;;;;;;;;5115135;28;20270;-81
2023/05/08 12:20:52;;;;;;;6.50;1.90;;;;;;;;;;5114625;27;20226;-81
2023/05/08 12:23:19;;;;;;;3.85;1.65;;;;;;;;;;5112905;28;20201;-81
2023/05/08 12:25:46;;;;;;;2.30;1.40;;;;;;;;;;5112806;28;20255;-84
2023/05/08 12:28:14;;;;;;;3.17;1.23;;;;;;;;;;5112158;28;20265;-82
2023/05/08 12:30:41;;;;;;;3.75;1.40;;;;;;;;;;5120807;28;20486;-82
2023/05/08 12:33:08;;;;;;;2.60;1.45;;;;;;;;;;5121412;28;20218;-81
2023/05/08 12:35:37;;;;;;;2.90;1.60;;;;;;;;;;5121939;28;20217;-82
2023/05/08 12:38:07;;;;;;;2.72;1.20;;;;;;;;;;5120605;28;20247;-81
2023/05/08 12:40:35;;;;;;;3.67;1.65;;;;;;;;;;5106682;28;20228;-82
2023/05/08 12:43:03;;;;;;;1.63;1.23;;;;;;;;;;5098552;28;20788;-81
2023/05/08 12:45:32;;;;;;;3.72;1.55;;;;;;;;;;5097576;28;20252;-81
2023/05/08 12:48:00;;;;;;;3.58;1.30;;;;;;;;;;5098575;28;20711;-80
2023/05/08 12:50:29;;;;;;;2.67;1.50;;;;;;;;;;5094927;28;20229;-81
2023/05/08 12:53:02;;;;;;;2.17;1.40;;;;;;;;;;5096317;28;20604;-81
2023/05/08 12:55:31;;;;;;;3.47;1.48;;;;;;;;;;5095097;28;20676;-80
2023/05/08 12:58:02;;;;;;;2.13;1.40;;;;;;;;;;5094701;28;20230;-81
2023/05/08 13:00:37;;;;;;;3.38;2.10;;;;;;;;;;5097380;28;20194;-80
2023/05/08 13:03:04;;;;;;;2.60;1.65;;;;;;;;;;5096456;28;20246;-81
2023/05/08 13:05:32;;;;;;;3.03;1.70;;;;;;;;;;5109280;28;20206;-79
2023/05/08 13:08:02;;;;;;;4.18;2.63;;;;;;;;;;5112668;28;20222;-79
2023/05/08 13:10:47;;;;;;;5.13;2.85;;;;;;;;;;5112842;28;20229;-80
2023/05/08 13:13:14;;;;;;;2.83;1.98;;;;;;;;;;5113752;27;20190;-80
2023/05/08 13:15:42;;;;;;;2.92;2.00;;;;;;;;;;5113595;28;20286;-80
2023/05/08 13:18:09;;;;;;;2.72;1.83;;;;;;;;;;5113438;28;20240;-79
2023/05/08 13:20:36;;;;;;;3.50;2.53;;;;;;;;;;5113722;28;20257;-81
2023/05/08 13:23:04;;;;;;;3.80;1.65;;;;;;;;;;5115075;28;20198;-80
2023/05/08 13:25:31;;;;;;;3.00;1.80;;;;;;;;;;5114803;28;20221;-81
2023/05/08 13:28:00;;;;;;;4.65;2.20;;;;;;;;;;5114516;28;20233;-80
2023/05/08 13:30:27;;;;;;;3.35;2.35;;;;;;;;;;5112890;28;20262;-80
2023/05/08 13:32:55;;;;;;;5.88;2.00;;;;;;;;;;5112907;28;20292;-80
2023/05/08 13:35:22;;;;;;;5.93;3.35;;;;;;;;;;5112890;28;20186;-79
2023/05/08 13:37:49;;;;;;;4.53;1.70;;;;;;;;;;5098739;28;20281;-80
2023/05/08 13:40:17;;;;;;;5.68;2.63;;;;;;;;;;5112328;28;20200;-80
2023/05/08 13:42:44;;;;;;;4.57;1.90;;;;;;;;;;5112690;28;20690;-79
2023/05/08 13:45:14;;;;;;;3.45;1.77;;;;;;;;;;5105828;28;20237;-80
2023/05/08 13:47:41;;;;;;;5.38;2.10;;;;;;;;;;5112853;28;20717;-80
2023/05/08 13:50:09;;;;;;;3.30;1.67;;;;;;;;;;5111599;28;20654;-80
2023/05/08 13:52:36;;;;;;;3.85;2.03;;;;;;;;;;5112542;28;20193;-81
2023/05/08 13:55:04;;;;;;;5.32;2.10;;;;;;;;;;5111701;28;20229;-81
2023/05/08 13:57:31;;;;;;;3.53;1.88;;;;;;;;;;5112164;28;20194;-80
2023/05/08 13:59:59;;;;;;;3.75;1.90;;;;;;;;;;5112442;28;20190;-80
2023/05/08 14:02:27;;;;;;;5.75;2.08;;;;;;;;;;5112664;28;20244;-80
2023/05/08 14:04:54;;;;;;;3.50;1.80;;;;;;;;;;5112939;28;20553;-80
2023/05/08 14:07:22;;;;;;;3.73;2.20;;;;;;;;;;5100315;27;20953;-80
2023/05/08 14:09:49;;;;;;;4.70;2.38;;;;;;;;;;5105633;28;20496;-78
2023/05/08 14:12:16;;;;;;;5.15;2.20;;;;;;;;;;5105640;28;20625;-79
2023/05/08 14:14:44;;;;;;;5.70;1.67;;;;;;;;;;5112248;28;20258;-79
2023/05/08 14:17:11;;;;;;;4.18;1.90;;;;;;;;;;5110144;28;20204;-81
2023/05/08 14:19:39;;;;;;;3.67;1.90;;;;;;;;;;5112307;28;20198;-79
2023/05/08 14:22:07;;;;;;;5.90;1.83;;;;;;;;;;5112032;28;20202;-78
2023/05/08 14:24:35;;;;;;;5.40;1.90;;;;;;;;;;5111598;28;20620;-79
2023/05/08 14:27:04;;;;;;;5.40;1.90;;;;;;;;;;5112281;28;20214;-79
2023/05/08 14:29:31;;;;;;;4.38;1.52;;;;;;;;;;5109845;28;20197;-82
2023/05/08 14:31:59;;;;;;;2.88;1.75;;;;;;;;;;5111686;28;20198;-83
2023/05/08 14:34:26;;;;;;;3.95;1.45;;;;;;;;;;5110796;28;20651;-82
2023/05/08 14:36:54;;;;;;;4.78;1.90;;;;;;;;;;5111749;28;20236;-83
2023/05/08 14:39:22;;;;;;;5.57;2.30;;;;;;;;;;5111309;28;20242;-82
2023/05/08 14:41:49;;;;;;;4.88;2.15;;;;;;;;;;5111689;28;20280;-82
2023/05/08 14:44:16;;;;;;;5.90;2.33;;;;;;;;;;5111574;28;20206;-81
2023/05/08 14:46:44;;;;;;;4.95;2.13;;;;;;;;;;5111911;28;20621;-82
2023/05/08 14:49:11;;;;;;;4.38;2.03;;;;;;;;;;5111593;28;20624;-82
2023/05/08 14:51:38;;;;;;;6.38;1.80;;;;;;;;;;5111468;28;20224;-82
2023/05/08 14:54:07;;;;;;;3.88;1.70;;;;;;;;;;5111776;28;20225;-82
2023/05/08 14:56:34;;;;;;;4.05;1.70;;;;;;;;;;5111079;28;20194;-82
2023/05/08 14:59:01;;;;;;;5.45;1.92;;;;;;;;;;5111276;28;20297;-82